createdAt,value
2022-12-17T00:01:41.619Z,50.80
2022-12-17T00:07:01.526Z,49.58
2022-12-17T00:12:21.395Z,47.33
2022-12-17T00:17:42.458Z,48.17
2022-12-17T00:23:02.450Z,48.03
2022-12-17T00:28:22.344Z,47.63
2022-12-17T00:33:43.438Z,45.70
2022-12-17T00:39:03.675Z,44.10
2022-12-17T00:44:23.564Z,44.78
2022-12-17T00:49:49.933Z,44.83
2022-12-17T00:55:06.252Z,46.03
2022-12-17T01:00:26.970Z,46.30
2022-12-17T01:05:53.954Z,43.70
2022-12-17T01:11:17.061Z,43.08
2022-12-17T01:16:36.954Z,42.17
2022-12-17T01:22:10.020Z,41.00
2022-12-17T01:27:29.739Z,41.53
2022-12-17T01:32:48.802Z,43.22
2022-12-17T01:38:10.281Z,40.85
2022-12-17T01:43:31.341Z,40.25
2022-12-17T01:48:55.157Z,44.88
2022-12-17T01:54:16.247Z,40.30
2022-12-17T01:59:37.148Z,45.17
2022-12-17T02:04:57.490Z,42.90
2022-12-17T02:10:22.138Z,47.63
2022-12-17T02:21:03.533Z,46.80
2022-12-17T02:26:28.769Z,49.90
2022-12-17T02:31:51.168Z,44.60
2022-12-17T02:37:10.983Z,47.72
2022-12-17T02:42:30.772Z,46.35
2022-12-17T02:47:52.564Z,47.95
2022-12-17T02:53:12.775Z,49.85
2022-12-17T02:58:33.127Z,46.97
2022-12-17T03:03:54.212Z,48.88
2022-12-17T03:09:15.239Z,47.80
2022-12-17T03:14:35.032Z,47.95
2022-12-17T03:19:56.322Z,48.95
2022-12-17T03:25:24.547Z,44.70
2022-12-17T03:30:48.676Z,48.58
2022-12-17T03:41:30.557Z,46.38
2022-12-17T03:46:50.327Z,47.13
2022-12-17T03:52:10.353Z,44.78
2022-12-17T03:57:31.345Z,44.33
2022-12-17T04:02:51.438Z,46.55
2022-12-17T04:08:23.145Z,49.60
2022-12-17T04:13:45.031Z,45.83
2022-12-17T04:19:05.140Z,45.70
2022-12-17T04:24:25.645Z,47.53
2022-12-17T04:29:46.799Z,46.70
2022-12-17T04:35:06.642Z,44.03
2022-12-17T04:40:27.531Z,43.42
2022-12-17T04:45:48.692Z,40.45
2022-12-17T04:51:08.476Z,45.92
2022-12-17T04:56:28.294Z,41.83
2022-12-17T05:01:49.516Z,45.25
2022-12-17T05:07:09.710Z,43.20
2022-12-17T05:12:29.669Z,45.53
2022-12-17T05:17:50.903Z,43.47
2022-12-17T05:23:12.856Z,41.88
2022-12-17T05:28:32.722Z,40.53
2022-12-17T05:33:53.856Z,43.75
2022-12-17T05:39:13.859Z,42.47
2022-12-17T05:44:33.707Z,39.25
2022-12-17T05:49:54.893Z,42.45
2022-12-17T05:55:16.679Z,41.53
2022-12-17T06:00:36.542Z,42.85
2022-12-17T06:06:12.801Z,40.90
2022-12-17T06:11:33.169Z,44.22
2022-12-17T06:16:53.052Z,43.10
2022-12-17T06:22:19.888Z,44.97
2022-12-17T06:27:39.784Z,43.42
2022-12-17T06:32:59.564Z,43.70
2022-12-17T06:38:21.912Z,42.15
2022-12-17T06:43:41.823Z,44.70
2022-12-17T06:49:01.892Z,42.85
2022-12-17T06:54:23.138Z,40.92
2022-12-17T06:59:43.193Z,41.58
2022-12-17T07:05:02.978Z,42.08
2022-12-17T07:10:25.061Z,41.33
2022-12-17T07:15:44.937Z,40.08
2022-12-17T07:21:05.453Z,40.03
2022-12-17T07:26:26.719Z,41.00
2022-12-17T07:31:46.752Z,38.63
2022-12-17T07:37:06.787Z,39.60
2022-12-17T07:42:27.942Z,39.42
2022-12-17T07:48:02.477Z,39.38
2022-12-17T07:53:23.559Z,39.30
2022-12-17T07:58:59.241Z,38.80
2022-12-17T08:04:19.277Z,38.88
2022-12-17T08:09:39.191Z,37.83
2022-12-17T08:15:00.470Z,39.38
2022-12-17T08:20:20.367Z,41.58
2022-12-17T08:25:41.202Z,37.63
2022-12-17T08:31:06.000Z,39.53
2022-12-17T08:36:27.155Z,40.97
2022-12-17T08:41:52.643Z,40.40
2022-12-17T08:47:15.789Z,42.13
2022-12-17T08:52:32.163Z,38.50
2022-12-17T08:57:52.331Z,39.28
2022-12-17T09:03:15.992Z,39.28
2022-12-17T09:08:36.172Z,41.05
2022-12-17T09:13:57.398Z,38.90
2022-12-17T09:19:18.896Z,39.60
2022-12-17T09:24:39.299Z,38.05
2022-12-17T09:30:01.832Z,39.30
2022-12-17T09:35:23.572Z,38.50
2022-12-17T09:40:43.950Z,38.30
2022-12-17T09:46:08.024Z,40.28
2022-12-17T09:51:38.384Z,36.97
2022-12-17T09:56:59.114Z,39.30
2022-12-17T10:02:21.128Z,36.70
2022-12-17T10:07:43.982Z,34.97
2022-12-17T10:13:03.799Z,35.53
2022-12-17T10:18:24.820Z,34.80
2022-12-17T10:23:58.205Z,35.10
2022-12-17T10:29:30.822Z,32.58
2022-12-17T10:34:54.077Z,33.20
2022-12-17T10:40:17.450Z,31.85
2022-12-17T10:45:39.228Z,34.05
2022-12-17T10:51:03.145Z,34.53
2022-12-17T10:56:24.758Z,32.53
2022-12-17T11:01:44.933Z,29.55
2022-12-17T11:07:06.479Z,32.60
2022-12-17T11:12:30.977Z,31.80
2022-12-17T11:17:53.704Z,31.63
2022-12-17T11:23:15.317Z,34.97
2022-12-17T11:28:36.818Z,32.65
2022-12-17T11:34:00.521Z,32.88
2022-12-17T11:39:24.677Z,32.17
2022-12-17T11:44:53.614Z,31.42
2022-12-17T11:50:29.084Z,32.58
2022-12-17T11:55:52.880Z,35.20
2022-12-17T12:01:28.804Z,34.90
2022-12-17T12:06:55.603Z,33.08
2022-12-17T12:12:21.535Z,31.73
2022-12-17T12:17:50.816Z,31.45
2022-12-17T12:23:14.405Z,32.55
2022-12-17T12:28:48.074Z,33.08
2022-12-17T12:34:11.850Z,30.08
2022-12-17T12:39:35.149Z,27.67
2022-12-17T12:44:59.048Z,28.85
2022-12-17T12:50:23.520Z,29.50
2022-12-17T12:55:54.987Z,32.17
2022-12-17T13:01:14.856Z,32.13
2022-12-17T13:06:32.210Z,32.30
2022-12-17T13:11:39.740Z,34.55
2022-12-17T13:16:49.948Z,33.03
2022-12-17T13:21:52.332Z,33.42
2022-12-17T13:26:56.424Z,35.25
2022-12-17T13:32:09.464Z,35.17
2022-12-17T13:37:16.568Z,34.13
2022-12-17T13:42:25.456Z,32.85
2022-12-17T13:47:30.627Z,34.88
2022-12-17T13:52:34.529Z,33.22
2022-12-17T13:57:39.317Z,34.05
2022-12-17T14:02:42.619Z,38.10
2022-12-17T14:07:45.141Z,34.28
2022-12-17T14:12:50.014Z,32.70
2022-12-17T14:17:52.869Z,36.25
2022-12-17T14:22:56.372Z,33.63
2022-12-17T14:28:01.735Z,32.38
2022-12-17T14:33:04.736Z,32.58
2022-12-17T14:38:07.214Z,34.03
2022-12-17T14:43:14.004Z,31.70
2022-12-17T14:48:16.536Z,34.05
2022-12-17T14:53:26.043Z,33.20
2022-12-17T14:58:29.755Z,33.63
2022-12-17T15:03:33.435Z,35.90
2022-12-17T15:08:37.539Z,33.20
2022-12-17T15:13:41.542Z,35.35
2022-12-17T15:18:43.997Z,37.13
2022-12-17T15:23:46.567Z,36.58
2022-12-17T15:28:50.315Z,37.80
2022-12-17T15:33:52.662Z,34.35
2022-12-17T15:38:55.073Z,36.65
2022-12-17T15:43:58.835Z,39.67
2022-12-17T15:49:01.409Z,39.65
2022-12-17T15:54:03.848Z,41.83
2022-12-17T15:59:07.638Z,40.72
2022-12-17T16:04:16.781Z,39.25
2022-12-17T16:09:24.539Z,40.53
2022-12-17T16:14:28.487Z,40.38
2022-12-17T16:19:30.902Z,43.65
2022-12-17T16:24:33.293Z,40.88
2022-12-17T16:29:37.082Z,40.15
2022-12-17T16:34:41.481Z,36.60
2022-12-17T16:39:43.938Z,36.20
2022-12-17T16:44:47.770Z,38.40
2022-12-17T16:49:50.943Z,39.80
2022-12-17T16:54:54.322Z,36.10
2022-12-17T16:59:58.137Z,37.45
2022-12-17T17:05:00.496Z,37.40
2022-12-17T17:10:02.860Z,35.05
2022-12-17T17:15:07.449Z,34.33
2022-12-17T17:20:11.583Z,36.78
2022-12-17T17:25:13.951Z,33.97
2022-12-17T17:30:17.695Z,34.97
2022-12-17T17:35:20.091Z,35.33
2022-12-17T17:40:22.426Z,40.03
2022-12-17T17:45:26.111Z,39.42
2022-12-17T17:55:30.787Z,37.38
2022-12-17T18:00:34.483Z,38.03
2022-12-17T18:05:41.468Z,41.70
2022-12-17T18:10:44.242Z,41.15
2022-12-17T18:15:47.984Z,37.22
2022-12-17T18:20:50.379Z,37.40
2022-12-17T18:25:52.743Z,36.25
2022-12-17T18:30:56.425Z,34.72
2022-12-17T18:41:25.761Z,34.25
2022-12-17T18:46:30.549Z,34.78
2022-12-17T18:51:34.350Z,37.88
2022-12-17T18:57:00.668Z,37.30
2022-12-17T19:02:00.965Z,42.50
2022-12-17T19:07:03.417Z,39.38
2022-12-17T19:12:06.723Z,37.15
2022-12-17T19:17:10.475Z,33.00
2022-12-17T19:22:12.820Z,34.63
2022-12-17T19:27:15.200Z,35.10
2022-12-17T19:32:18.927Z,36.55
2022-12-17T19:37:21.310Z,35.60
2022-12-17T19:42:30.655Z,37.38
2022-12-17T19:47:40.336Z,37.80
2022-12-17T19:52:42.673Z,40.47
2022-12-17T19:57:45.105Z,41.05
2022-12-17T20:02:48.982Z,42.58
2022-12-17T20:07:51.417Z,40.88
2022-12-17T20:12:53.855Z,40.72
2022-12-17T20:17:57.632Z,39.72
2022-12-17T20:23:00.055Z,40.85
2022-12-17T20:28:02.511Z,38.70
2022-12-17T20:33:06.300Z,43.17
2022-12-17T20:38:08.720Z,46.80
2022-12-17T20:43:11.218Z,41.65
2022-12-17T20:48:16.993Z,44.22
2022-12-17T20:53:20.341Z,39.78
2022-12-17T20:58:22.738Z,40.25
2022-12-17T21:03:27.763Z,38.28
2022-12-17T21:08:30.226Z,37.78
2022-12-17T21:13:32.897Z,40.58
2022-12-17T21:18:36.988Z,37.10
2022-12-17T21:23:39.953Z,37.03
2022-12-17T21:28:44.961Z,38.87
2022-12-17T21:33:49.044Z,37.75
2022-12-17T21:38:51.790Z,38.03
2022-12-17T21:43:54.842Z,37.92
2022-12-17T21:48:59.118Z,39.75
2022-12-17T21:54:02.813Z,39.28
2022-12-17T21:59:11.944Z,36.67
2022-12-17T22:04:15.723Z,41.17
2022-12-17T22:09:26.111Z,39.60
2022-12-17T22:14:41.567Z,39.67
2022-12-17T22:19:45.338Z,38.00
2022-12-17T22:24:47.774Z,43.35
2022-12-17T22:30:07.923Z,41.38
2022-12-17T22:36:41.355Z,43.30
2022-12-17T22:44:32.049Z,44.15
2022-12-17T22:45:59.605Z,44.70
2022-12-17T22:51:14.543Z,46.03
2022-12-17T22:56:40.740Z,43.13
2022-12-17T23:01:48.079Z,46.63
2022-12-17T23:06:51.928Z,48.60
2022-12-17T23:11:54.337Z,46.40
2022-12-17T23:16:56.735Z,44.35
2022-12-17T23:22:00.495Z,53.58
2022-12-17T23:27:02.859Z,50.63
2022-12-17T23:32:05.535Z,45.83
2022-12-17T23:37:09.344Z,42.43
2022-12-17T23:42:11.701Z,44.67
2022-12-17T23:47:14.063Z,45.05
2022-12-17T23:52:17.762Z,39.72
2022-12-17T23:57:20.147Z,43.80
